sensor_id;sensor_type;location;lat;lon;timestamp;P1;durP1;ratioP1;P2;durP2;ratioP2
10537;SDS011;5317;49.048;8.468;2022-07-23T00:00:24;7.67;;;6.87;;
10537;SDS011;5317;49.048;8.468;2022-07-23T00:02:53;8.03;;;7.30;;
10537;SDS011;5317;49.048;8.468;2022-07-23T00:05:20;9.83;;;7.30;;
10537;SDS011;5317;49.048;8.468;2022-07-23T00:07:47;7.57;;;6.90;;
10537;SDS011;5317;49.048;8.468;2022-07-23T00:10:14;7.23;;;6.53;;
10537;SDS011;5317;49.048;8.468;2022-07-23T00:12:42;8.90;;;7.50;;
10537;SDS011;5317;49.048;8.468;2022-07-23T00:15:10;7.70;;;7.00;;
10537;SDS011;5317;49.048;8.468;2022-07-23T00:17:37;8.03;;;7.03;;
10537;SDS011;5317;49.048;8.468;2022-07-23T00:20:06;7.50;;;6.80;;
10537;SDS011;5317;49.048;8.468;2022-07-23T00:22:34;6.87;;;6.27;;
10537;SDS011;5317;49.048;8.468;2022-07-23T00:25:01;7.20;;;6.50;;
10537;SDS011;5317;49.048;8.468;2022-07-23T00:27:29;7.30;;;6.30;;
10537;SDS011;5317;49.048;8.468;2022-07-23T00:29:56;9.03;;;6.60;;
10537;SDS011;5317;49.048;8.468;2022-07-23T00:32:25;7.23;;;6.57;;
10537;SDS011;5317;49.048;8.468;2022-07-23T00:34:52;9.30;;;5.93;;
10537;SDS011;5317;49.048;8.468;2022-07-23T00:37:21;8.03;;;6.67;;
10537;SDS011;5317;49.048;8.468;2022-07-23T00:39:48;6.73;;;5.93;;
10537;SDS011;5317;49.048;8.468;2022-07-23T00:42:15;7.00;;;6.13;;
10537;SDS011;5317;49.048;8.468;2022-07-23T00:44:42;7.80;;;6.00;;
10537;SDS011;5317;49.048;8.468;2022-07-23T00:47:09;6.83;;;5.87;;
10537;SDS011;5317;49.048;8.468;2022-07-23T00:49:36;7.10;;;6.30;;
10537;SDS011;5317;49.048;8.468;2022-07-23T00:52:04;7.10;;;6.40;;
10537;SDS011;5317;49.048;8.468;2022-07-23T00:54:33;6.83;;;6.10;;
10537;SDS011;5317;49.048;8.468;2022-07-23T00:57:01;7.00;;;5.77;;
10537;SDS011;5317;49.048;8.468;2022-07-23T00:59:29;7.13;;;6.43;;
10537;SDS011;5317;49.048;8.468;2022-07-23T01:01:56;5.93;;;5.40;;
10537;SDS011;5317;49.048;8.468;2022-07-23T01:04:23;6.63;;;5.87;;
10537;SDS011;5317;49.048;8.468;2022-07-23T01:06:51;6.17;;;5.67;;
10537;SDS011;5317;49.048;8.468;2022-07-23T01:09:19;6.30;;;5.70;;
10537;SDS011;5317;49.048;8.468;2022-07-23T01:11:47;13.10;;;5.53;;
10537;SDS011;5317;49.048;8.468;2022-07-23T01:14:17;6.40;;;5.80;;
10537;SDS011;5317;49.048;8.468;2022-07-23T01:16:46;6.40;;;5.90;;
10537;SDS011;5317;49.048;8.468;2022-07-23T01:19:15;6.47;;;5.87;;
10537;SDS011;5317;49.048;8.468;2022-07-23T01:21:44;6.57;;;5.73;;
10537;SDS011;5317;49.048;8.468;2022-07-23T01:24:15;6.20;;;5.60;;
10537;SDS011;5317;49.048;8.468;2022-07-23T01:26:44;6.47;;;5.87;;
10537;SDS011;5317;49.048;8.468;2022-07-23T01:29:13;6.30;;;5.77;;
10537;SDS011;5317;49.048;8.468;2022-07-23T01:31:42;6.27;;;5.67;;
10537;SDS011;5317;49.048;8.468;2022-07-23T01:34:09;6.40;;;5.80;;
10537;SDS011;5317;49.048;8.468;2022-07-23T01:36:37;5.73;;;4.90;;
10537;SDS011;5317;49.048;8.468;2022-07-23T01:39:06;6.53;;;5.93;;
10537;SDS011;5317;49.048;8.468;2022-07-23T01:41:35;6.13;;;5.63;;
10537;SDS011;5317;49.048;8.468;2022-07-23T01:44:02;6.03;;;5.43;;
10537;SDS011;5317;49.048;8.468;2022-07-23T01:46:29;6.60;;;5.80;;
10537;SDS011;5317;49.048;8.468;2022-07-23T01:48:56;6.90;;;5.80;;
10537;SDS011;5317;49.048;8.468;2022-07-23T01:51:23;6.70;;;6.13;;
10537;SDS011;5317;49.048;8.468;2022-07-23T01:53:50;6.70;;;6.00;;
10537;SDS011;5317;49.048;8.468;2022-07-23T01:56:17;7.10;;;6.40;;
10537;SDS011;5317;49.048;8.468;2022-07-23T01:58:47;7.17;;;6.23;;
10537;SDS011;5317;49.048;8.468;2022-07-23T02:01:14;6.60;;;5.90;;
10537;SDS011;5317;49.048;8.468;2022-07-23T02:03:41;6.93;;;6.33;;
10537;SDS011;5317;49.048;8.468;2022-07-23T02:06:08;6.17;;;5.50;;
10537;SDS011;5317;49.048;8.468;2022-07-23T02:08:35;6.90;;;5.87;;
10537;SDS011;5317;49.048;8.468;2022-07-23T02:11:02;6.13;;;5.20;;
10537;SDS011;5317;49.048;8.468;2022-07-23T02:13:30;6.60;;;6.00;;
10537;SDS011;5317;49.048;8.468;2022-07-23T02:15:58;7.13;;;6.27;;
10537;SDS011;5317;49.048;8.468;2022-07-23T02:18:25;6.37;;;5.77;;
10537;SDS011;5317;49.048;8.468;2022-07-23T02:20:52;6.43;;;5.83;;
10537;SDS011;5317;49.048;8.468;2022-07-23T02:23:19;6.37;;;5.67;;
10537;SDS011;5317;49.048;8.468;2022-07-23T02:25:46;6.83;;;6.13;;
10537;SDS011;5317;49.048;8.468;2022-07-23T02:28:14;6.70;;;6.00;;
10537;SDS011;5317;49.048;8.468;2022-07-23T02:30:41;7.53;;;6.83;;
10537;SDS011;5317;49.048;8.468;2022-07-23T02:33:10;6.73;;;5.60;;
10537;SDS011;5317;49.048;8.468;2022-07-23T02:35:37;7.77;;;6.60;;
10537;SDS011;5317;49.048;8.468;2022-07-23T02:38:04;6.53;;;5.93;;
10537;SDS011;5317;49.048;8.468;2022-07-23T02:40:31;6.40;;;5.87;;
10537;SDS011;5317;49.048;8.468;2022-07-23T02:42:58;7.07;;;6.40;;
10537;SDS011;5317;49.048;8.468;2022-07-23T02:45:25;7.13;;;6.50;;
10537;SDS011;5317;49.048;8.468;2022-07-23T02:47:52;6.60;;;6.00;;
10537;SDS011;5317;49.048;8.468;2022-07-23T02:50:21;6.93;;;6.23;;
10537;SDS011;5317;49.048;8.468;2022-07-23T02:52:50;7.50;;;6.10;;
10537;SDS011;5317;49.048;8.468;2022-07-23T02:55:18;8.30;;;6.37;;
10537;SDS011;5317;49.048;8.468;2022-07-23T02:57:45;6.53;;;5.93;;
10537;SDS011;5317;49.048;8.468;2022-07-23T03:00:15;6.63;;;5.90;;
10537;SDS011;5317;49.048;8.468;2022-07-23T03:02:42;6.73;;;6.00;;
10537;SDS011;5317;49.048;8.468;2022-07-23T03:05:10;7.07;;;6.37;;
10537;SDS011;5317;49.048;8.468;2022-07-23T03:07:38;6.97;;;6.37;;
10537;SDS011;5317;49.048;8.468;2022-07-23T03:10:05;6.93;;;6.03;;
10537;SDS011;5317;49.048;8.468;2022-07-23T03:12:33;6.27;;;5.67;;
10537;SDS011;5317;49.048;8.468;2022-07-23T03:15:00;6.00;;;5.47;;
10537;SDS011;5317;49.048;8.468;2022-07-23T03:17:27;7.97;;;6.00;;
10537;SDS011;5317;49.048;8.468;2022-07-23T03:19:54;6.73;;;5.93;;
10537;SDS011;5317;49.048;8.468;2022-07-23T03:22:21;8.10;;;5.93;;
10537;SDS011;5317;49.048;8.468;2022-07-23T03:24:50;7.33;;;6.13;;
10537;SDS011;5317;49.048;8.468;2022-07-23T03:27:20;6.43;;;5.77;;
10537;SDS011;5317;49.048;8.468;2022-07-23T03:29:48;6.87;;;5.80;;
10537;SDS011;5317;49.048;8.468;2022-07-23T03:32:16;5.70;;;5.20;;
10537;SDS011;5317;49.048;8.468;2022-07-23T03:34:43;7.00;;;5.73;;
10537;SDS011;5317;49.048;8.468;2022-07-23T03:37:10;6.27;;;5.67;;
10537;SDS011;5317;49.048;8.468;2022-07-23T03:39:38;6.30;;;5.70;;
10537;SDS011;5317;49.048;8.468;2022-07-23T03:42:07;6.27;;;5.77;;
10537;SDS011;5317;49.048;8.468;2022-07-23T03:44:34;8.23;;;5.70;;
10537;SDS011;5317;49.048;8.468;2022-07-23T03:47:03;6.57;;;5.87;;
10537;SDS011;5317;49.048;8.468;2022-07-23T03:49:31;6.57;;;6.07;;
10537;SDS011;5317;49.048;8.468;2022-07-23T03:51:59;7.17;;;6.47;;
10537;SDS011;5317;49.048;8.468;2022-07-23T03:54:27;7.23;;;6.60;;
10537;SDS011;5317;49.048;8.468;2022-07-23T03:56:54;6.60;;;6.00;;
10537;SDS011;5317;49.048;8.468;2022-07-23T03:59:23;7.33;;;6.63;;
10537;SDS011;5317;49.048;8.468;2022-07-23T04:01:50;7.27;;;6.57;;
10537;SDS011;5317;49.048;8.468;2022-07-23T04:04:17;7.17;;;6.43;;
10537;SDS011;5317;49.048;8.468;2022-07-23T04:06:44;9.03;;;6.60;;
10537;SDS011;5317;49.048;8.468;2022-07-23T04:09:11;6.03;;;5.53;;
10537;SDS011;5317;49.048;8.468;2022-07-23T04:11:38;7.50;;;5.30;;
10537;SDS011;5317;49.048;8.468;2022-07-23T04:14:05;5.37;;;4.80;;
10537;SDS011;5317;49.048;8.468;2022-07-23T04:16:34;6.73;;;5.00;;
10537;SDS011;5317;49.048;8.468;2022-07-23T04:19:03;5.60;;;5.00;;
10537;SDS011;5317;49.048;8.468;2022-07-23T04:21:31;7.07;;;4.90;;
10537;SDS011;5317;49.048;8.468;2022-07-23T04:23:58;6.63;;;4.90;;
10537;SDS011;5317;49.048;8.468;2022-07-23T04:26:25;4.90;;;4.43;;
10537;SDS011;5317;49.048;8.468;2022-07-23T04:28:52;5.67;;;4.90;;
10537;SDS011;5317;49.048;8.468;2022-07-23T04:31:19;5.40;;;4.90;;
10537;SDS011;5317;49.048;8.468;2022-07-23T04:33:47;5.70;;;5.20;;
10537;SDS011;5317;49.048;8.468;2022-07-23T04:36:14;7.77;;;4.97;;
10537;SDS011;5317;49.048;8.468;2022-07-23T04:38:42;5.00;;;4.43;;
10537;SDS011;5317;49.048;8.468;2022-07-23T04:41:09;7.47;;;4.70;;
10537;SDS011;5317;49.048;8.468;2022-07-23T04:43:36;5.07;;;4.27;;
10537;SDS011;5317;49.048;8.468;2022-07-23T04:46:03;5.20;;;4.70;;
10537;SDS011;5317;49.048;8.468;2022-07-23T04:48:31;6.63;;;4.60;;
10537;SDS011;5317;49.048;8.468;2022-07-23T04:50:59;5.70;;;4.50;;
10537;SDS011;5317;49.048;8.468;2022-07-23T04:53:27;5.60;;;4.40;;
10537;SDS011;5317;49.048;8.468;2022-07-23T04:55:54;7.83;;;5.80;;
10537;SDS011;5317;49.048;8.468;2022-07-23T04:58:21;6.50;;;5.27;;
10537;SDS011;5317;49.048;8.468;2022-07-23T05:00:48;4.90;;;4.43;;
10537;SDS011;5317;49.048;8.468;2022-07-23T05:03:16;5.50;;;5.00;;
10537;SDS011;5317;49.048;8.468;2022-07-23T05:05:43;7.17;;;5.47;;
10537;SDS011;5317;49.048;8.468;2022-07-23T05:08:12;8.57;;;5.43;;
10537;SDS011;5317;49.048;8.468;2022-07-23T05:10:39;6.20;;;5.50;;
10537;SDS011;5317;49.048;8.468;2022-07-23T05:13:07;5.60;;;5.10;;
10537;SDS011;5317;49.048;8.468;2022-07-23T05:15:34;6.77;;;5.23;;
10537;SDS011;5317;49.048;8.468;2022-07-23T05:18:02;5.57;;;5.07;;
10537;SDS011;5317;49.048;8.468;2022-07-23T05:20:29;5.87;;;5.07;;
10537;SDS011;5317;49.048;8.468;2022-07-23T05:22:56;7.10;;;5.57;;
10537;SDS011;5317;49.048;8.468;2022-07-23T05:25:25;5.80;;;5.23;;
10537;SDS011;5317;49.048;8.468;2022-07-23T05:27:52;5.33;;;4.40;;
10537;SDS011;5317;49.048;8.468;2022-07-23T05:30:20;7.60;;;5.83;;
10537;SDS011;5317;49.048;8.468;2022-07-23T05:32:47;5.97;;;4.87;;
10537;SDS011;5317;49.048;8.468;2022-07-23T05:35:14;5.70;;;5.20;;
10537;SDS011;5317;49.048;8.468;2022-07-23T05:37:41;6.07;;;5.47;;
10537;SDS011;5317;49.048;8.468;2022-07-23T05:40:09;6.27;;;5.67;;
10537;SDS011;5317;49.048;8.468;2022-07-23T05:42:39;5.93;;;5.37;;
10537;SDS011;5317;49.048;8.468;2022-07-23T05:45:07;5.97;;;5.30;;
10537;SDS011;5317;49.048;8.468;2022-07-23T05:47:40;5.60;;;5.10;;
10537;SDS011;5317;49.048;8.468;2022-07-23T05:50:09;6.20;;;4.97;;
10537;SDS011;5317;49.048;8.468;2022-07-23T05:52:39;5.73;;;5.23;;
10537;SDS011;5317;49.048;8.468;2022-07-23T05:55:09;6.10;;;5.50;;
10537;SDS011;5317;49.048;8.468;2022-07-23T05:57:39;6.30;;;5.53;;
10537;SDS011;5317;49.048;8.468;2022-07-23T06:00:08;6.77;;;5.20;;
10537;SDS011;5317;49.048;8.468;2022-07-23T06:02:37;6.63;;;5.43;;
10537;SDS011;5317;49.048;8.468;2022-07-23T06:05:05;6.03;;;5.37;;
10537;SDS011;5317;49.048;8.468;2022-07-23T06:07:33;6.03;;;5.33;;
10537;SDS011;5317;49.048;8.468;2022-07-23T06:10:01;6.40;;;5.80;;
10537;SDS011;5317;49.048;8.468;2022-07-23T06:12:29;7.23;;;6.53;;
10537;SDS011;5317;49.048;8.468;2022-07-23T06:14:58;6.47;;;5.77;;
10537;SDS011;5317;49.048;8.468;2022-07-23T06:17:25;6.43;;;5.80;;
10537;SDS011;5317;49.048;8.468;2022-07-23T06:19:53;7.27;;;6.33;;
10537;SDS011;5317;49.048;8.468;2022-07-23T06:22:21;8.53;;;6.47;;
10537;SDS011;5317;49.048;8.468;2022-07-23T06:24:48;7.37;;;6.67;;
10537;SDS011;5317;49.048;8.468;2022-07-23T06:27:17;7.50;;;6.70;;
10537;SDS011;5317;49.048;8.468;2022-07-23T06:29:44;8.20;;;6.50;;
10537;SDS011;5317;49.048;8.468;2022-07-23T06:32:13;7.17;;;6.47;;
10537;SDS011;5317;49.048;8.468;2022-07-23T06:34:40;6.93;;;6.23;;
10537;SDS011;5317;49.048;8.468;2022-07-23T06:37:07;7.10;;;6.40;;
10537;SDS011;5317;49.048;8.468;2022-07-23T06:39:34;7.23;;;6.50;;
10537;SDS011;5317;49.048;8.468;2022-07-23T06:42:01;7.10;;;6.40;;
10537;SDS011;5317;49.048;8.468;2022-07-23T06:44:29;7.67;;;6.83;;
10537;SDS011;5317;49.048;8.468;2022-07-23T06:46:56;6.10;;;5.50;;
10537;SDS011;5317;49.048;8.468;2022-07-23T06:49:28;7.07;;;6.37;;
10537;SDS011;5317;49.048;8.468;2022-07-23T06:51:55;6.77;;;6.10;;
10537;SDS011;5317;49.048;8.468;2022-07-23T06:54:22;7.77;;;6.77;;
10537;SDS011;5317;49.048;8.468;2022-07-23T06:56:49;8.33;;;7.17;;
10537;SDS011;5317;49.048;8.468;2022-07-23T06:59:16;7.40;;;6.70;;
10537;SDS011;5317;49.048;8.468;2022-07-23T07:01:44;7.80;;;7.00;;
10537;SDS011;5317;49.048;8.468;2022-07-23T07:04:11;7.20;;;6.57;;
10537;SDS011;5317;49.048;8.468;2022-07-23T07:06:39;7.60;;;6.87;;
10537;SDS011;5317;49.048;8.468;2022-07-23T07:09:07;6.40;;;5.73;;
10537;SDS011;5317;49.048;8.468;2022-07-23T07:11:34;6.83;;;6.17;;
10537;SDS011;5317;49.048;8.468;2022-07-23T07:14:01;6.70;;;5.93;;
10537;SDS011;5317;49.048;8.468;2022-07-23T07:16:29;6.70;;;6.10;;
10537;SDS011;5317;49.048;8.468;2022-07-23T07:18:56;6.80;;;6.07;;
10537;SDS011;5317;49.048;8.468;2022-07-23T07:21:23;6.00;;;5.40;;
10537;SDS011;5317;49.048;8.468;2022-07-23T07:23:52;7.47;;;6.47;;
10537;SDS011;5317;49.048;8.468;2022-07-23T07:26:19;6.97;;;6.30;;
10537;SDS011;5317;49.048;8.468;2022-07-23T07:28:46;8.53;;;6.40;;
10537;SDS011;5317;49.048;8.468;2022-07-23T07:31:13;7.30;;;6.60;;
10537;SDS011;5317;49.048;8.468;2022-07-23T07:33:41;6.97;;;6.23;;
10537;SDS011;5317;49.048;8.468;2022-07-23T07:36:08;7.60;;;5.80;;
10537;SDS011;5317;49.048;8.468;2022-07-23T07:38:38;7.43;;;6.37;;
10537;SDS011;5317;49.048;8.468;2022-07-23T07:41:07;7.17;;;5.60;;
10537;SDS011;5317;49.048;8.468;2022-07-23T07:43:35;6.23;;;5.63;;
10537;SDS011;5317;49.048;8.468;2022-07-23T07:46:02;6.80;;;5.67;;
10537;SDS011;5317;49.048;8.468;2022-07-23T07:48:30;6.00;;;5.33;;
10537;SDS011;5317;49.048;8.468;2022-07-23T07:50:57;6.10;;;5.50;;
10537;SDS011;5317;49.048;8.468;2022-07-23T07:53:25;6.40;;;5.60;;
10537;SDS011;5317;49.048;8.468;2022-07-23T07:55:52;9.10;;;5.83;;
10537;SDS011;5317;49.048;8.468;2022-07-23T07:58:20;5.73;;;5.23;;
10537;SDS011;5317;49.048;8.468;2022-07-23T08:00:47;6.57;;;5.67;;
10537;SDS011;5317;49.048;8.468;2022-07-23T08:03:14;6.47;;;5.87;;
10537;SDS011;5317;49.048;8.468;2022-07-23T08:05:42;6.13;;;5.53;;
10537;SDS011;5317;49.048;8.468;2022-07-23T08:08:12;6.03;;;5.47;;
10537;SDS011;5317;49.048;8.468;2022-07-23T08:10:40;6.17;;;5.53;;
10537;SDS011;5317;49.048;8.468;2022-07-23T08:13:12;6.47;;;5.87;;
10537;SDS011;5317;49.048;8.468;2022-07-23T08:15:43;5.23;;;4.83;;
10537;SDS011;5317;49.048;8.468;2022-07-23T08:18:10;6.40;;;5.80;;
10537;SDS011;5317;49.048;8.468;2022-07-23T08:20:38;5.67;;;5.17;;
10537;SDS011;5317;49.048;8.468;2022-07-23T08:23:05;5.77;;;5.13;;
10537;SDS011;5317;49.048;8.468;2022-07-23T08:25:35;5.73;;;5.23;;
10537;SDS011;5317;49.048;8.468;2022-07-23T08:28:06;6.77;;;5.37;;
10537;SDS011;5317;49.048;8.468;2022-07-23T08:30:35;6.57;;;5.90;;
10537;SDS011;5317;49.048;8.468;2022-07-23T08:33:06;6.13;;;5.53;;
10537;SDS011;5317;49.048;8.468;2022-07-23T08:35:38;6.80;;;6.03;;
10537;SDS011;5317;49.048;8.468;2022-07-23T08:38:09;5.93;;;5.40;;
10537;SDS011;5317;49.048;8.468;2022-07-23T08:40:37;5.53;;;5.03;;
10537;SDS011;5317;49.048;8.468;2022-07-23T08:43:08;6.20;;;5.60;;
10537;SDS011;5317;49.048;8.468;2022-07-23T08:45:41;5.87;;;5.37;;
10537;SDS011;5317;49.048;8.468;2022-07-23T08:48:12;6.30;;;5.37;;
10537;SDS011;5317;49.048;8.468;2022-07-23T08:50:42;6.33;;;5.83;;
10537;SDS011;5317;49.048;8.468;2022-07-23T08:53:11;6.07;;;5.53;;
10537;SDS011;5317;49.048;8.468;2022-07-23T08:55:42;7.37;;;5.70;;
10537;SDS011;5317;49.048;8.468;2022-07-23T08:58:11;5.43;;;4.93;;
10537;SDS011;5317;49.048;8.468;2022-07-23T09:00:39;5.63;;;5.13;;
10537;SDS011;5317;49.048;8.468;2022-07-23T09:03:07;5.77;;;5.27;;
10537;SDS011;5317;49.048;8.468;2022-07-23T09:05:43;7.43;;;5.80;;
10537;SDS011;5317;49.048;8.468;2022-07-23T09:08:11;6.73;;;6.03;;
10537;SDS011;5317;49.048;8.468;2022-07-23T09:10:44;6.47;;;5.80;;
10537;SDS011;5317;49.048;8.468;2022-07-23T09:13:22;8.40;;;6.37;;
10537;SDS011;5317;49.048;8.468;2022-07-23T09:15:53;6.23;;;5.63;;
10537;SDS011;5317;49.048;8.468;2022-07-23T09:18:47;6.50;;;5.90;;
10537;SDS011;5317;49.048;8.468;2022-07-23T09:21:17;6.63;;;5.90;;
10537;SDS011;5317;49.048;8.468;2022-07-23T09:23:53;6.57;;;5.73;;
10537;SDS011;5317;49.048;8.468;2022-07-23T09:26:24;5.80;;;5.30;;
10537;SDS011;5317;49.048;8.468;2022-07-23T09:28:57;6.53;;;5.43;;
10537;SDS011;5317;49.048;8.468;2022-07-23T09:31:31;6.93;;;5.90;;
10537;SDS011;5317;49.048;8.468;2022-07-23T09:34:11;6.87;;;5.67;;
10537;SDS011;5317;49.048;8.468;2022-07-23T09:36:42;5.67;;;5.17;;
10537;SDS011;5317;49.048;8.468;2022-07-23T09:39:10;5.60;;;5.10;;
10537;SDS011;5317;49.048;8.468;2022-07-23T09:41:43;5.27;;;4.77;;
10537;SDS011;5317;49.048;8.468;2022-07-23T09:44:13;5.60;;;5.10;;
10537;SDS011;5317;49.048;8.468;2022-07-23T09:46:42;5.73;;;5.23;;
10537;SDS011;5317;49.048;8.468;2022-07-23T09:49:17;5.43;;;4.93;;
10537;SDS011;5317;49.048;8.468;2022-07-23T09:51:51;5.93;;;5.40;;
10537;SDS011;5317;49.048;8.468;2022-07-23T09:54:23;5.17;;;4.67;;
10537;SDS011;5317;49.048;8.468;2022-07-23T09:57:02;5.77;;;5.03;;
10537;SDS011;5317;49.048;8.468;2022-07-23T09:59:34;5.30;;;4.80;;
10537;SDS011;5317;49.048;8.468;2022-07-23T10:02:03;6.33;;;5.00;;
10537;SDS011;5317;49.048;8.468;2022-07-23T10:04:34;6.50;;;5.10;;
10537;SDS011;5317;49.048;8.468;2022-07-23T10:07:02;5.10;;;4.60;;
10537;SDS011;5317;49.048;8.468;2022-07-23T10:09:33;6.37;;;5.77;;
10537;SDS011;5317;49.048;8.468;2022-07-23T10:12:03;6.43;;;5.63;;
10537;SDS011;5317;49.048;8.468;2022-07-23T10:14:42;5.50;;;5.00;;
10537;SDS011;5317;49.048;8.468;2022-07-23T10:17:10;6.20;;;5.60;;
10537;SDS011;5317;49.048;8.468;2022-07-23T10:19:39;6.40;;;5.80;;
10537;SDS011;5317;49.048;8.468;2022-07-23T10:22:08;5.97;;;5.47;;
10537;SDS011;5317;49.048;8.468;2022-07-23T10:24:59;5.90;;;5.20;;
10537;SDS011;5317;49.048;8.468;2022-07-23T10:27:53;7.83;;;5.10;;
10537;SDS011;5317;49.048;8.468;2022-07-23T10:30:34;5.47;;;4.90;;
10537;SDS011;5317;49.048;8.468;2022-07-23T10:33:12;5.40;;;4.90;;
10537;SDS011;5317;49.048;8.468;2022-07-23T10:35:55;6.00;;;5.50;;
10537;SDS011;5317;49.048;8.468;2022-07-23T10:38:31;6.27;;;5.40;;
10537;SDS011;5317;49.048;8.468;2022-07-23T10:41:09;7.10;;;5.57;;
10537;SDS011;5317;49.048;8.468;2022-07-23T10:43:36;5.80;;;5.30;;
10537;SDS011;5317;49.048;8.468;2022-07-23T10:46:22;6.80;;;6.20;;
10537;SDS011;5317;49.048;8.468;2022-07-23T10:52:16;6.97;;;6.00;;
10537;SDS011;5317;49.048;8.468;2022-07-23T10:54:54;6.50;;;5.30;;
10537;SDS011;5317;49.048;8.468;2022-07-23T10:57:47;6.43;;;5.73;;
10537;SDS011;5317;49.048;8.468;2022-07-23T11:00:19;6.23;;;5.63;;
10537;SDS011;5317;49.048;8.468;2022-07-23T11:02:49;6.10;;;5.60;;
10537;SDS011;5317;49.048;8.468;2022-07-23T11:05:20;6.10;;;5.50;;
10537;SDS011;5317;49.048;8.468;2022-07-23T11:10:45;6.90;;;6.30;;
10537;SDS011;5317;49.048;8.468;2022-07-23T11:16:11;6.97;;;6.17;;
10537;SDS011;5317;49.048;8.468;2022-07-23T11:18:54;6.73;;;6.13;;
10537;SDS011;5317;49.048;8.468;2022-07-23T11:21:51;7.03;;;6.40;;
10537;SDS011;5317;49.048;8.468;2022-07-23T11:24:20;7.63;;;5.97;;
10537;SDS011;5317;49.048;8.468;2022-07-23T11:26:54;6.67;;;6.07;;
10537;SDS011;5317;49.048;8.468;2022-07-23T11:29:45;6.57;;;5.97;;
10537;SDS011;5317;49.048;8.468;2022-07-23T11:35:20;8.03;;;5.53;;
10537;SDS011;5317;49.048;8.468;2022-07-23T11:37:51;6.60;;;6.10;;
10537;SDS011;5317;49.048;8.468;2022-07-23T11:40:25;6.40;;;5.80;;
10537;SDS011;5317;49.048;8.468;2022-07-23T11:42:54;6.13;;;5.63;;
10537;SDS011;5317;49.048;8.468;2022-07-23T11:45:25;6.67;;;5.90;;
10537;SDS011;5317;49.048;8.468;2022-07-23T11:47:58;6.57;;;6.00;;
10537;SDS011;5317;49.048;8.468;2022-07-23T11:50:25;6.70;;;6.07;;
10537;SDS011;5317;49.048;8.468;2022-07-23T11:52:53;7.10;;;6.33;;
10537;SDS011;5317;49.048;8.468;2022-07-23T11:55:20;7.23;;;6.53;;
10537;SDS011;5317;49.048;8.468;2022-07-23T11:57:50;6.87;;;6.17;;
10537;SDS011;5317;49.048;8.468;2022-07-23T12:00:19;6.83;;;6.23;;
10537;SDS011;5317;49.048;8.468;2022-07-23T12:02:50;6.17;;;5.67;;
10537;SDS011;5317;49.048;8.468;2022-07-23T12:05:20;6.10;;;5.60;;
10537;SDS011;5317;49.048;8.468;2022-07-23T12:07:50;6.97;;;6.37;;
10537;SDS011;5317;49.048;8.468;2022-07-23T12:10:20;6.80;;;6.20;;
10537;SDS011;5317;49.048;8.468;2022-07-23T12:12:52;6.47;;;5.97;;
10537;SDS011;5317;49.048;8.468;2022-07-23T12:15:23;6.10;;;5.60;;
10537;SDS011;5317;49.048;8.468;2022-07-23T12:17:54;6.33;;;5.60;;
10537;SDS011;5317;49.048;8.468;2022-07-23T12:20:22;6.27;;;5.67;;
10537;SDS011;5317;49.048;8.468;2022-07-23T12:22:52;6.70;;;6.10;;
10537;SDS011;5317;49.048;8.468;2022-07-23T12:25:24;6.93;;;6.33;;
10537;SDS011;5317;49.048;8.468;2022-07-23T12:27:59;7.20;;;6.60;;
10537;SDS011;5317;49.048;8.468;2022-07-23T12:30:31;6.50;;;5.90;;
10537;SDS011;5317;49.048;8.468;2022-07-23T12:33:01;6.73;;;6.13;;
10537;SDS011;5317;49.048;8.468;2022-07-23T12:35:31;6.83;;;6.23;;
10537;SDS011;5317;49.048;8.468;2022-07-23T12:38:03;6.73;;;5.97;;
10537;SDS011;5317;49.048;8.468;2022-07-23T12:40:32;6.00;;;5.50;;
10537;SDS011;5317;49.048;8.468;2022-07-23T12:43:05;6.47;;;5.83;;
10537;SDS011;5317;49.048;8.468;2022-07-23T12:45:43;6.37;;;5.77;;
10537;SDS011;5317;49.048;8.468;2022-07-23T12:48:16;6.43;;;5.87;;
10537;SDS011;5317;49.048;8.468;2022-07-23T12:50:50;6.73;;;6.13;;
10537;SDS011;5317;49.048;8.468;2022-07-23T12:53:21;6.37;;;5.80;;
10537;SDS011;5317;49.048;8.468;2022-07-23T12:55:56;5.90;;;5.40;;
10537;SDS011;5317;49.048;8.468;2022-07-23T12:58:38;7.10;;;6.37;;
10537;SDS011;5317;49.048;8.468;2022-07-23T13:01:10;6.90;;;6.30;;
10537;SDS011;5317;49.048;8.468;2022-07-23T13:03:55;6.37;;;5.77;;
10537;SDS011;5317;49.048;8.468;2022-07-23T13:06:28;6.20;;;5.70;;
10537;SDS011;5317;49.048;8.468;2022-07-23T13:08:57;6.40;;;5.80;;
10537;SDS011;5317;49.048;8.468;2022-07-23T13:11:25;6.53;;;5.93;;
10537;SDS011;5317;49.048;8.468;2022-07-23T13:13:54;6.93;;;6.33;;
10537;SDS011;5317;49.048;8.468;2022-07-23T13:16:21;5.63;;;5.23;;
10537;SDS011;5317;49.048;8.468;2022-07-23T13:18:48;5.90;;;5.30;;
10537;SDS011;5317;49.048;8.468;2022-07-23T13:21:16;6.03;;;5.43;;
10537;SDS011;5317;49.048;8.468;2022-07-23T13:23:43;6.13;;;5.53;;
10537;SDS011;5317;49.048;8.468;2022-07-23T13:26:10;6.50;;;6.00;;
10537;SDS011;5317;49.048;8.468;2022-07-23T13:28:37;5.93;;;5.43;;
10537;SDS011;5317;49.048;8.468;2022-07-23T13:31:06;6.87;;;5.63;;
10537;SDS011;5317;49.048;8.468;2022-07-23T13:33:34;5.93;;;5.37;;
10537;SDS011;5317;49.048;8.468;2022-07-23T13:36:01;6.07;;;5.57;;
10537;SDS011;5317;49.048;8.468;2022-07-23T13:38:30;6.30;;;5.80;;
10537;SDS011;5317;49.048;8.468;2022-07-23T13:40:58;7.33;;;5.50;;
10537;SDS011;5317;49.048;8.468;2022-07-23T13:43:25;6.30;;;5.80;;
10537;SDS011;5317;49.048;8.468;2022-07-23T13:45:52;6.23;;;5.63;;
10537;SDS011;5317;49.048;8.468;2022-07-23T13:48:21;6.23;;;5.73;;
10537;SDS011;5317;49.048;8.468;2022-07-23T13:50:49;6.53;;;6.03;;
10537;SDS011;5317;49.048;8.468;2022-07-23T13:53:17;5.93;;;5.40;;
10537;SDS011;5317;49.048;8.468;2022-07-23T13:55:50;6.00;;;5.50;;
10537;SDS011;5317;49.048;8.468;2022-07-23T13:58:19;6.70;;;5.87;;
10537;SDS011;5317;49.048;8.468;2022-07-23T14:00:48;6.07;;;5.53;;
10537;SDS011;5317;49.048;8.468;2022-07-23T14:03:18;5.97;;;5.47;;
10537;SDS011;5317;49.048;8.468;2022-07-23T14:05:49;7.27;;;5.47;;
10537;SDS011;5317;49.048;8.468;2022-07-23T14:08:17;6.20;;;5.47;;
10537;SDS011;5317;49.048;8.468;2022-07-23T14:10:44;6.33;;;5.77;;
10537;SDS011;5317;49.048;8.468;2022-07-23T14:13:11;6.00;;;5.50;;
10537;SDS011;5317;49.048;8.468;2022-07-23T14:15:39;6.37;;;5.83;;
10537;SDS011;5317;49.048;8.468;2022-07-23T14:18:06;5.97;;;5.47;;
10537;SDS011;5317;49.048;8.468;2022-07-23T14:20:35;6.50;;;6.00;;
10537;SDS011;5317;49.048;8.468;2022-07-23T14:23:02;6.50;;;5.90;;
10537;SDS011;5317;49.048;8.468;2022-07-23T14:25:30;7.60;;;5.50;;
10537;SDS011;5317;49.048;8.468;2022-07-23T14:27:57;6.00;;;5.50;;
10537;SDS011;5317;49.048;8.468;2022-07-23T14:30:24;7.90;;;5.77;;
10537;SDS011;5317;49.048;8.468;2022-07-23T14:32:51;6.47;;;5.87;;
10537;SDS011;5317;49.048;8.468;2022-07-23T14:35:18;5.93;;;5.40;;
10537;SDS011;5317;49.048;8.468;2022-07-23T14:37:47;5.80;;;5.30;;
10537;SDS011;5317;49.048;8.468;2022-07-23T14:40:14;6.47;;;5.87;;
10537;SDS011;5317;49.048;8.468;2022-07-23T14:42:41;6.93;;;5.53;;
10537;SDS011;5317;49.048;8.468;2022-07-23T14:45:08;6.30;;;5.80;;
10537;SDS011;5317;49.048;8.468;2022-07-23T14:47:36;6.20;;;5.60;;
10537;SDS011;5317;49.048;8.468;2022-07-23T14:50:04;6.20;;;5.60;;
10537;SDS011;5317;49.048;8.468;2022-07-23T14:52:32;6.23;;;5.63;;
10537;SDS011;5317;49.048;8.468;2022-07-23T14:55:02;6.57;;;5.97;;
10537;SDS011;5317;49.048;8.468;2022-07-23T14:57:30;7.43;;;6.20;;
10537;SDS011;5317;49.048;8.468;2022-07-23T14:59:57;6.23;;;5.67;;
10537;SDS011;5317;49.048;8.468;2022-07-23T15:02:24;5.87;;;5.37;;
10537;SDS011;5317;49.048;8.468;2022-07-23T15:04:51;6.77;;;6.17;;
10537;SDS011;5317;49.048;8.468;2022-07-23T15:07:18;6.23;;;5.73;;
10537;SDS011;5317;49.048;8.468;2022-07-23T15:09:45;5.27;;;4.77;;
10537;SDS011;5317;49.048;8.468;2022-07-23T15:12:14;6.07;;;5.57;;
10537;SDS011;5317;49.048;8.468;2022-07-23T15:14:41;6.33;;;5.67;;
10537;SDS011;5317;49.048;8.468;2022-07-23T15:17:09;5.97;;;5.47;;
10537;SDS011;5317;49.048;8.468;2022-07-23T15:19:36;6.17;;;5.57;;
10537;SDS011;5317;49.048;8.468;2022-07-23T15:22:03;5.97;;;5.30;;
10537;SDS011;5317;49.048;8.468;2022-07-23T15:24:31;6.80;;;5.60;;